ADDS METAR Data INFO
IDs: Format: Raw Decoded Include TAF

Data at: 0213 UTC 20 Sep 2017

KSAT 200151Z 14013G22KT 10SM FEW065 SCT120 BKN250 30/22 A2985 RMK AO2 SLP090 T03000217
KSAT 200051Z 13013KT 10SM FEW070 SCT120 BKN250 31/21 A2984 RMK AO2 SLP084 T03110211
KSAT 192351Z 13014KT 10SM FEW070 SCT120 BKN250 32/21 A2984 RMK AO2 SLP084 T03220206 10350 20311 55005
KSAT 192251Z 14011KT 10SM FEW065 SCT120 BKN250 33/20 A2983 RMK AO2 SLP081 T03330200
KSAT 192151Z 18007KT 10SM SCT060 BKN250 34/20 A2983 RMK AO2 SLP083 T03440200
KSAT 192051Z 14011KT 10SM SCT050 SCT250 34/20 A2985 RMK AO2 SLP088 T03440200 58031
KSAT 191951Z 17010KT 10SM FEW048 SCT065 SCT250 34/21 A2989 RMK AO2 SLP100 T03440206
KSAT 191851Z 18010KT 10SM SCT043 BKN055 BKN250 33/21 A2992 RMK AO2 SLP113 T03280211
KSAT 191832Z 19008KT 10SM SCT043 BKN250 32/21 A2993 RMK AO2 T03220211
KSAT 191751Z VRB05G18KT 10SM SCT038 BKN250 32/21 A2995 RMK AO2 SLP121 T03220211 10328 20256 58012
KSAT 191651Z 18009KT 10SM SCT034 BKN060 BKN250 31/22 A2997 RMK AO2 SLP130 T03060217
KSAT 191551Z 19009KT 10SM SCT021 BKN035 BKN250 28/22 A2998 RMK AO2 SLP134 T02830217
KSAT 191451Z 18011KT 10SM FEW013 BKN024 BKN250 27/22 A2998 RMK AO2 SLP135 T02720222 52012
KSAT 191351Z 17010KT 7SM SCT013 BKN021 BKN250 27/23 A2997 RMK AO2 SLP132 T02670228
KSAT 191251Z 15009KT 8SM BKN013 BKN026 BKN250 26/23 A2996 RMK AO2 SLP125 BKN013 V SCT T02610228
KSAT 191151Z 18008KT 10SM BKN014 BKN250 26/23 A2995 RMK AO2 SLP122 T02610228 10267 20256 53003
KSAT 191115Z 17005KT 10SM BKN014 BKN250 26/23 A2995 RMK AO2 T02560228
KSAT 191053Z 18006KT 9SM SCT015 26/23 A2994 RMK AO2 T02560228
KSAT 191051Z 19005KT 10SM BKN013 BKN250 26/23 A2994 RMK AO2 SLP119 T02560228
KSAT 191043Z 18004KT 9SM BKN013 BKN250 26/23 A2994 RMK AO2 T02560228
KSAT 190951Z 17006KT 10SM BKN016 26/23 A2994 RMK AO2 SLP117 T02560228
KSAT 190851Z 18009KT 10SM BKN015 BKN250 26/23 A2994 RMK AO2 SLP119 BKN015 V SCT T02610228 58003
KSAT 190751Z 16008KT 10SM BKN018 BKN250 26/23 A2995 RMK AO2 SLP121 T02610228
KSAT 190745Z 16009KT 10SM BKN018 BKN250 26/23 A2995 RMK AO2
KSAT 190651Z 15009KT 10SM BKN013 BKN250 26/23 A2995 RMK AO2 SLP123 T02610228
KSAT 190551Z 16009KT 10SM BKN014 BKN250 27/23 A2995 RMK AO2 SLP122 BKN014 V SCT T02670228 10317 20261 403500244 50001
KSAT 190542Z 15010KT 10SM BKN014 BKN250 26/23 A2995 RMK AO2 BKN014 V SCT T02610228
KSAT 190451Z 14008KT 10SM BKN250 27/22 A2995 RMK AO2 SLP124 T02670222
KSAT 190351Z 13010KT 10SM BKN250 27/23 A2995 RMK AO2 SLP123 T02720228
KSAT 190251Z 13012KT 10SM BKN250 28/23 A2995 RMK AO2 SLP121 T02830228 53014
KSAT 190151Z 14012KT 10SM BKN250 29/22 A2993 RMK AO2 SLP115 T02890222
KSAT 190051Z 13013KT 10SM BKN250 30/22 A2991 RMK AO2 SLP109 T03000217
KSAT 182351Z 13015KT 10SM FEW050 BKN250 32/21 A2990 RMK AO2 SLP107 T03170211 10350 20311 55008
KSAT 182251Z 14011KT 10SM FEW060 BKN250 34/19 A2990 RMK AO2 SLP104 T03390194
KSAT 182151Z 14005KT 10SM FEW060 BKN250 34/20 A2991 RMK AO2 SLP108 T03390200
KSAT 182051Z VRB04KT 10SM FEW055 BKN250 33/20 A2993 RMK AO2 SLP115 T03330200 58028
KSAT 181951Z COR VRB06KT 10SM SCT048 BKN250 33/20 A2996 RMK AO2 SLP125 T03330200
KSAT 181851Z 15007KT 10SM SCT043 BKN250 32/21 A2999 RMK AO2 SLP136 T03220206
KSAT 181751Z 19006KT 10SM SCT036 BKN250 32/21 A3001 RMK AO2 SLP144 60000 T03170211 10317 20250 58005
KSAT 181651Z VRB06KT 10SM SCT032 BKN250 31/22 A3003 RMK AO2 SLP149 T03060217
KSAT 181551Z 20008KT 10SM FEW022 SCT030 BKN250 28/22 A3004 RMK AO2 SLP152 T02830217
KSAT 181451Z COR 18006KT 10SM BKN016 BKN028 BKN250 28/22 A3003 RMK AO2 SLP150 T02780222 51006